This is the latest recevied weather packets stored in our database for station/object EB2EMZ-W. If no packets are shown the sender has not sent any weather packets the latest 10 day(s).
| Time | Temp. | Humidity | Pressure | Rain* | Wind** | Luminosity | Snow |
|---|---|---|---|---|---|---|---|
| 1788347464 | 27.22° C | 34% | 1007 hPa | 0 mm | - | - | - |
| 1788345652 | 26.67° C | 35% | 1007 hPa | 0 mm | - | - | - |
| 1788343837 | 25.56° C | 38% | 1007 hPa | 0 mm | - | - | - |
| 1788342024 | 24.44° C | 42% | 1007 hPa | 0 mm | - | - | - |
| 1788340210 | 23.33° C | 47% | 1007 hPa | 0 mm | - | - | - |
| 1788338397 | 21.67° C | 57% | 1007 hPa | 0 mm | - | - | - |
| 1788336582 | 20.56° C | 65% | 1007 hPa | 0 mm | - | - | - |
| 1788334771 | 18.89° C | 71% | 1007 hPa | 0 mm | - | - | - |
| 1788332960 | 17.78° C | 79% | 1007 hPa | 0 mm | - | - | - |
| 1788331149 | 16.11° C | 76% | 1006 hPa | 0 mm | - | - | - |
| 1788329336 | 16.11° C | 78% | 1006 hPa | 0 mm | - | - | - |
| 1788327528 | 16.11° C | 78% | 1006 hPa | 0 mm | - | - | - |
| 1788325714 | 16.11° C | 78% | 1006 hPa | 0 mm | - | - | - |
| 1788323902 | 16.67° C | 79% | 1006 hPa | 0 mm | - | - | - |
| 1788322091 | 16.67° C | 79% | 1006 hPa | 0 mm | - | - | - |
| 1788320280 | 16.11° C | 76% | 1006 hPa | 0 mm | - | - | - |
| 1788318468 | 16.67° C | 78% | 1007 hPa | 0 mm | - | - | - |
| 1788316658 | 17.22° C | 78% | 1007 hPa | 0 mm | - | - | - |
| 1788314848 | 17.22° C | 77% | 1007 hPa | 0 mm | - | - | - |
| 1788313035 | 17.78° C | 76% | 1007 hPa | 0 mm | - | - | - |
| 1788311224 | 17.78° C | 77% | 1007 hPa | 0 mm | - | - | - |
| 1788309412 | 18.33° C | 76% | 1007 hPa | 0 mm | - | - | - |
| 1788307603 | 18.89° C | 73% | 1007 hPa | 0 mm | - | - | - |
| 1788305791 | 19.44° C | 67% | 1007 hPa | 0 mm | - | - | - |
| 1788303102 | 20° C | 68% | 1006 hPa | 0 mm | - | - | - |
* Rain latest hour (hover to see other rain measurements)
** Current wind speed in m/s (hover to see current wind gust speed)